Flight Track Log - Related Links

Times and Time Zones

All times are in EDT time to prevent confusion due to time zone crossing. See the ACA927 flight status page for this flight to view local times or setup timezone preferences in your user account.

Time Position Orientation Groundspeed Altitude Reporting Facility
EDT Latitude Longitude Course Direction KTS MPH feet Rate Location/Type
Mon 08:43:06 PM 26.0750 -80.1367 83° East 164 189 800  Level Miami Center
Mon 08:44:13 PM 26.0828 -80.0697 83° East 250 288 2,100 2,060 Climbing Miami Center
Mon 08:45:20 PM 26.1014 -79.9800 77° East 269 310 5,400 2,672 Climbing Miami Center
Mon 08:46:21 PM 26.1719 -79.9981 347° North 296 341 7,800 2,459 Climbing Miami Center
Mon 08:47:22 PM 26.2333 -80.0600 318° Northwest 297 342 10,400 1,800 Climbing Miami Center
Mon 08:48:41 PM 26.3272 -80.1553 318° Northwest 377 434 12,000 1,597 Climbing Miami Center
Mon 08:49:41 PM 26.4092 -80.2247 323° Northwest 385 443 14,100 2,100 Climbing Miami Center
Mon 08:50:41 PM 26.5061 -80.2739 336° Northwest 379 436 16,200 1,900 Climbing Miami Center
Mon 08:51:41 PM 26.6053 -80.3256 335° Northwest 386 444 17,900 1,600 Climbing Miami Center
Mon 08:52:41 PM 26.7086 -80.3753 337° Northwest 391 450 19,400 1,400 Climbing Miami Center
Mon 08:53:41 PM 26.7992 -80.4267 333° Northwest 396 456 20,700 1,300 Climbing Miami Center
Mon 08:54:41 PM 26.9042 -80.4811 335° Northwest 396 456 22,000 1,350 Climbing Miami Center
Mon 08:55:41 PM 27.0072 -80.5356 335° Northwest 401 461 23,400 1,250 Climbing Miami Center
Mon 08:56:41 PM 27.1186 -80.5928 335° Northwest 413 475 24,500 1,150 Climbing Miami Center
Mon 08:57:41 PM 27.2258 -80.6500 335° Northwest 420 483 25,700 1,100 Climbing Miami Center
Mon 08:58:41 PM 27.3347 -80.7075 335° Northwest 426 490 26,700 900 Climbing Miami Center
Mon 08:59:41 PM 27.4481 -80.7625 337° Northwest 431 496 27,500 800 Climbing Miami Center
Mon 09:00:41 PM 27.5717 -80.8278 335° Northwest 443 510 28,300 900 Climbing Miami Center
Mon 09:01:41 PM 27.6911 -80.8881 336° Northwest 448 516 29,300 1,050 Climbing Miami Center
Mon 09:02:41 PM 27.8061 -80.9486 335° Northwest 454 522 30,400 1,150 Climbing Miami Center
Mon 09:03:41 PM 27.9192 -81.0089 335° Northwest 454 522 31,600 1,300 Climbing Miami Center
Mon 09:04:41 PM 28.0283 -81.0669 335° Northwest 449 517 33,000 1,200 Climbing Miami Center
Mon 09:05:41 PM 28.1228 -81.1175 335° Northwest 433 498 34,000 600 Climbing Miami Center
Mon 09:06:41 PM 28.2439 -81.1833 334° Northwest 433 498 34,200 350 Climbing Miami Center
Mon 09:07:41 PM 28.3547 -81.2419 335° Northwest 433 498 34,700 400 Climbing Miami Center
Mon 09:08:41 PM 28.4658 -81.2958 337° Northwest 438 504 35,000 150 Climbing Miami Center
Mon 09:09:41 PM 28.5833 -81.3383 342° North 438 504 35,000  Level Miami Center
Mon 09:11:09 PM 28.7458 -81.3581 354° North 447 514 35,000  Level Jacksonville Center
Mon 09:12:09 PM 28.8650 -81.3681 356° North 442 509 35,000 -50 Level Jacksonville Center
Mon 09:13:09 PM 28.9864 -81.3828 354° North 442 509 34,900  Descending Jacksonville Center
Mon 09:14:09 PM 29.1075 -81.3906 357° North 437 503 35,000 50 Climbing Jacksonville Center
Mon 09:15:09 PM 29.2197 -81.3556 15° North 421 484 35,000 -50 Level Jacksonville Center
Mon 09:16:09 PM 29.3297 -81.3061 21° North 413 475 34,900 -50 Descending Jacksonville Center
Mon 09:17:09 PM 29.4417 -81.2519 23° Northeast 424 488 34,900 50 Level Jacksonville Center
Mon 09:18:09 PM 29.5558 -81.1975 23° Northeast 424 488 35,000 50 Climbing Jacksonville Center
Mon 09:19:09 PM 29.6678 -81.1453 22° Northeast 424 488 35,000  Level Jacksonville Center
Mon 09:20:09 PM 29.7758 -81.0908 24° Northeast 424 488 35,000  Level Jacksonville Center
Mon 09:21:09 PM 29.8772 -81.0433 22° Northeast 424 488 35,000  Level Jacksonville Center
Mon 09:22:09 PM 29.9894 -80.9933 21° North 429 494 35,000  Level Jacksonville Center
Mon 09:23:09 PM 30.0969 -80.9383 24° Northeast 429 494 35,000  Level Jacksonville Center
Mon 09:24:09 PM 30.2069 -80.8833 23° Northeast 429 494 35,000  Level Jacksonville Center
Mon 09:25:09 PM 30.3167 -80.8328 22° Northeast 429 494 35,000  Level Jacksonville Center
Mon 09:26:09 PM 30.4264 -80.7797 23° Northeast 429 494 35,000  Level Jacksonville Center
Mon 09:27:09 PM 30.5361 -80.7267 23° Northeast 429 494 35,000 50 Level Jacksonville Center
Mon 09:28:09 PM 30.6481 -80.6711 23° Northeast 429 494 35,100  Climbing Jacksonville Center
Mon 09:29:09 PM 30.7556 -80.6153 24° Northeast 429 494 35,000 -50 Descending Jacksonville Center
Mon 09:30:09 PM 30.8675 -80.5644 21° North 429 494 35,000  Level Jacksonville Center
Mon 09:31:09 PM 30.9772 -80.5108 23° Northeast 429 494 35,000  Level Jacksonville Center
Mon 09:32:09 PM 31.0867 -80.4594 22° Northeast 429 494 35,000  Level Jacksonville Center
Mon 09:33:09 PM 31.1964 -80.4056 23° Northeast 423 487 35,000  Level Jacksonville Center
Mon 09:34:09 PM 31.3017 -80.3517 24° Northeast 423 487 35,000  Level Jacksonville Center
Mon 09:35:09 PM 31.4236 -80.2900 23° Northeast 423 487 35,000  Level Jacksonville Center
Mon 09:36:09 PM 31.5311 -80.2358 23° Northeast 423 487 35,000 -50 Level Jacksonville Center
Mon 09:37:09 PM 31.6406 -80.1792 24° Northeast 423 487 34,900 -50 Descending Jacksonville Center
Mon 09:38:09 PM 31.7481 -80.1244 23° Northeast 418 481 34,900  Level Jacksonville Center
Mon 09:39:09 PM 31.8575 -80.0725 22° Northeast 418 481 34,900 50 Level Jacksonville Center
Mon 09:40:09 PM 31.9689 -80.0175 23° Northeast 418 481 35,000 50 Climbing Jacksonville Center
Mon 09:41:09 PM 32.0783 -79.9578 25° Northeast 418 481 35,000  Level Jacksonville Center
Mon 09:42:09 PM 32.1878 -79.9053 22° Northeast 418 481 35,000 -50 Level Jacksonville Center
Mon 09:43:09 PM 32.2886 -79.8528 24° Northeast 425 489 34,900 -50 Descending Jacksonville Center
Mon 09:44:09 PM 32.3981 -79.7975 23° Northeast 425 489 34,900 50 Level Jacksonville Center
Mon 09:45:09 PM 32.5072 -79.7394 24° Northeast 425 489 35,000  Climbing Jacksonville Center
Mon 09:46:09 PM 32.6164 -79.6839 23° Northeast 430 495 34,900 -50 Descending Jacksonville Center
Mon 09:47:09 PM 32.7297 -79.6256 23° Northeast 430 495 34,900 50 Level Jacksonville Center
Mon 09:48:09 PM 32.8389 -79.5697 23° Northeast 430 495 35,000 50 Climbing Jacksonville Center
Mon 09:49:09 PM 32.9503 -79.5136 23° Northeast 430 495 35,000 -50 Level Jacksonville Center
Mon 09:50:09 PM 33.0614 -79.4550 24° Northeast 430 495 34,900 -50 Descending Jacksonville Center
Mon 09:51:09 PM 33.1725 -79.3986 23° Northeast 430 495 34,900 50 Level Jacksonville Center
Mon 09:52:09 PM 33.2836 -79.3419 23° Northeast 430 495 35,000 50 Climbing Jacksonville Center
Mon 09:53:09 PM 33.3903 -79.2756 27° Northeast 430 495 35,000  Level Jacksonville Center
Mon 09:54:09 PM 33.4900 -79.1894 36° Northeast 435 501 35,000  Level Jacksonville Center
Mon 09:55:09 PM 33.5939 -79.1028 35° Northeast 422 486 35,000 -50 Level Jacksonville Center
Mon 09:56:09 PM 33.6933 -79.0186 35° Northeast 416 479 34,900 -35 Descending Jacksonville Center
Mon 09:58:02 PM 33.8639 -78.8728 35° Northeast 437 503 34,900 35 Level Washington Center
Mon 09:59:02 PM 33.9622 -78.7917 34° Northeast 442 509 35,000 51 Climbing Washington Center
Mon 10:00:00 PM 34.0711 -78.6981 35° Northeast 442 509 35,000  Level Washington Center
Mon 10:01:01 PM 34.1733 -78.6117 35° Northeast 442 509 35,000  Level Washington Center
Mon 10:02:02 PM 34.2736 -78.5247 36° Northeast 442 509 35,000 -50 Level Washington Center
Mon 10:03:00 PM 34.3739 -78.4378 36° Northeast 442 509 34,900 -50 Descending Washington Center
Mon 10:04:01 PM 34.4717 -78.3531 36° Northeast 442 509 34,900  Level Washington Center
Mon 10:05:02 PM 34.5697 -78.2681 36° Northeast 442 509 34,900  Level Washington Center
Mon 10:06:03 PM 34.6694 -78.1831 35° Northeast 442 509 34,900 51 Level Washington Center
Mon 10:07:00 PM 34.7717 -78.0950 35° Northeast 442 509 35,000 51 Climbing Washington Center
Mon 10:08:01 PM 34.8567 -78.0117 39° Northeast 442 509 35,000  Level Washington Center
Mon 10:09:02 PM 34.9564 -77.9261 35° Northeast 442 509 35,000  Level Washington Center
Mon 10:10:00 PM 35.0542 -77.8400 36° Northeast 442 509 35,000  Level Washington Center
Mon 10:11:01 PM 35.1539 -77.7514 36° Northeast 436 502 35,000  Level Washington Center
Mon 10:12:03 PM 35.2514 -77.6625 37° Northeast 436 502 35,000  Level Washington Center
Mon 10:13:00 PM 35.3489 -77.5783 35° Northeast 436 502 35,000  Level Washington Center
Mon 10:14:01 PM 35.4522 -77.4994 32° Northeast 431 496 35,000  Level Washington Center
Mon 10:15:02 PM 35.5706 -77.4075 32° Northeast 440 506 35,000  Level Washington Center
Mon 10:16:00 PM 35.6783 -77.3283 31° Northeast 440 506 35,000 50 Level Washington Center
Mon 10:17:01 PM 35.7836 -77.2461 32° Northeast 446 513 35,100  Climbing Washington Center
Mon 10:18:01 PM 35.8933 -77.1636 31° Northeast 446 513 35,000 -50 Descending Washington Center
Mon 10:19:02 PM 35.9881 -77.0886 33° Northeast 446 513 35,000 -50 Level Washington Center
Mon 10:20:00 PM 36.0914 -77.0058 33° Northeast 446 513 34,900 -50 Descending Washington Center
Mon 10:21:01 PM 36.2008 -76.9253 31° Northeast 446 513 34,900  Level Washington Center
Mon 10:22:01 PM 36.3081 -76.8422 32° Northeast 446 513 34,900  Level Washington Center
Mon 10:23:01 PM 36.4175 -76.7586 32° Northeast 451 519 34,900 50 Level Washington Center
Mon 10:24:02 PM 36.5247 -76.6750 32° Northeast 451 519 35,000 50 Climbing Washington Center
Mon 10:25:00 PM 36.6339 -76.5858 33° Northeast 456 525 35,000  Level Washington Center
Mon 10:26:01 PM 36.7514 -76.4914 33° Northeast 461 531 35,000  Level Washington Center
Mon 10:27:02 PM 36.8647 -76.4200 27° Northeast 456 525 35,000  Level Washington Center
Mon 10:28:00 PM 36.9797 -76.3511 26° Northeast 450 518 35,000  Level Washington Center
Mon 10:29:00 PM 37.0950 -76.2819 26° Northeast 450 518 35,000  Level Washington Center
Mon 10:30:03 PM 37.2100 -76.2100 26° Northeast 450 518 35,000  Level Washington Center
Mon 10:31:00 PM 37.3314 -76.1456 23° Northeast 450 518 35,000 -50 Level Washington Center
Mon 10:32:02 PM 37.4464 -76.0731 27° Northeast 456 525 34,900 -50 Descending Washington Center
Mon 10:33:00 PM 37.5636 -76.0006 26° Northeast 461 531 34,900 50 Level Washington Center
Mon 10:34:02 PM 37.6825 -75.9381 23° Northeast 461 531 35,000 49 Climbing Washington Center
Mon 10:35:03 PM 37.7933 -75.8889 19° North 461 531 35,000  Level Washington Center
Mon 10:36:00 PM 37.9183 -75.8392 17° North 456 525 35,000 -51 Level Washington Center
Mon 10:37:01 PM 38.0311 -75.8028 14° North 463 533 34,900  Descending Washington Center
Mon 10:38:02 PM 38.1667 -75.7422 19° North 463 533 35,000 49 Climbing Washington Center
Mon 10:39:03 PM 38.2919 -75.6950 16° North 463 533 35,000  Level Washington Center
Mon 10:40:01 PM 38.4192 -75.6447 17° North 463 533 35,000 -50 Level Washington Center
Mon 10:41:02 PM 38.5400 -75.5997 16° North 463 533 34,900 -50 Descending Washington Center
Mon 10:42:00 PM 38.6653 -75.5517 17° North 458 527 34,900  Level Washington Center
Mon 10:43:00 PM 38.7903 -75.5011 17° North 463 533 34,900  Level Washington Center
Mon 10:44:00 PM 38.9131 -75.4503 18° North 463 533 34,900 50 Level Washington Center
Mon 10:45:01 PM 39.0403 -75.4044 16° North 463 533 35,000 50 Climbing Washington Center
Mon 10:46:01 PM 39.1611 -75.3561 17° North 463 533 35,000  Level Washington Center
Mon 10:47:00 PM 39.2881 -75.3047 17° North 463 533 35,000  Level Washington Center
Mon 10:48:01 PM 39.4108 -75.2583 16° North 463 533 35,000 -37 Level Washington Center
Mon 10:49:43 PM 39.6375 -75.1678 17° North 462 532 34,900  Descending New York Center
Mon 10:50:44 PM 39.7606 -75.1133 19° North 467 537 35,000 50 Climbing New York Center
Mon 10:51:44 PM 39.8856 -75.0589 18° North 467 537 35,000  Level New York Center
Mon 10:52:45 PM 40.0017 -75.0144 16° North 473 544 35,000 -51 Level New York Center
Mon 10:53:42 PM 40.1225 -74.9622 18° North 471 542 34,900  Descending New York Center
Mon 10:54:43 PM 40.2472 -74.9097 18° North 466 536 35,000 49 Climbing New York Center
Mon 10:55:45 PM 40.3739 -74.8683 14° North 466 536 35,000 -50 Level New York Center
Mon 10:56:43 PM 40.5022 -74.8322 12° North 461 531 34,900  Descending New York Center
Mon 10:57:45 PM 40.6283 -74.7961 12° North 456 525 35,000  Climbing New York Center
Mon 10:58:42 PM 40.7547 -74.7569 13° North 456 525 34,900 -51 Descending New York Center
Mon 10:59:43 PM 40.8831 -74.7206 12° North 456 525 34,900 29 Level New York Center
Mon 11:02:11 PM 41.1997 -74.6250 13° North 461 531 35,000 29 Climbing Boston Center
Mon 11:03:11 PM 41.3483 -74.5831 12° North 481 554 35,000  Level Boston Center
Mon 11:04:11 PM 41.4783 -74.5431 13° North 487 560 35,000  Level Boston Center
Mon 11:05:12 PM 41.5958 -74.5081 13° North 482 555 35,000  Level Boston Center
Mon 11:06:10 PM 41.7236 -74.4678 13° North 477 549 35,000  Level Boston Center
Mon 11:07:10 PM 41.8536 -74.4303 12° North 472 543 35,000  Level Boston Center
Mon 11:08:23 PM 42.0000 -74.3928 11° North 472 543 35,000  Level Boston Center
Mon 11:09:22 PM 42.1594 -74.3447 13° North 478 550 35,000  Level Boston Center
Mon 11:10:23 PM 42.2933 -74.3011 14° North 478 550 35,000  Level Boston Center
Mon 11:11:22 PM 42.4253 -74.2628 12° North 483 556 35,000  Level Boston Center
Mon 11:12:22 PM 42.5575 -74.2186 14° North 483 556 35,000 -645 Level Boston Center
Mon 11:13:23 PM 42.6894 -74.1772 13° North 483 556 33,700 -1,050 Descending Boston Center
Mon 11:14:22 PM 42.8233 -74.1328 14° North 489 563 32,900 -347 Descending Boston Center
Mon 11:15:24 PM 42.9553 -74.0911 13° North 489 563 33,000  Climbing Boston Center
Mon 11:16:23 PM 43.0894 -74.0464 14° North 489 563 32,900  Descending Boston Center
Mon 11:17:22 PM 43.2256 -74.0017 13° North 489 563 33,000 -151 Climbing Boston Center
Mon 11:18:22 PM 43.3594 -73.9594 13° North 489 563 32,600 -787 Descending Boston Center
Mon 11:19:24 PM 43.4933 -73.9197 12° North 489 563 31,400 -800 Descending Boston Center
Mon 11:20:22 PM 43.6336 -73.8744 13° North 494 568 31,000 -407 Descending Boston Center
Mon 11:21:22 PM 43.7758 -73.8261 14° North 504 580 30,600 -689 Descending Boston Center
Mon 11:22:24 PM 43.9139 -73.7803 13° North 510 587 29,600 -950 Descending Boston Center
Mon 11:23:22 PM 44.0372 -73.7397 13° North 505 581 28,700 -966 Descending Boston Center
Mon 11:24:22 PM 44.1817 -73.6936 13° North 515 593 27,700 -1,400 Descending Boston Center
Mon 11:25:22 PM 44.3153 -73.6500 13° North 503 579 25,900 -2,050 Descending Boston Center
Mon 11:26:22 PM 44.4431 -73.6061 14° North 479 551 23,600 -2,700 Descending Boston Center
Mon 11:27:22 PM 44.5767 -73.5619 13° North 458 527 20,500 -2,850 Descending Boston Center
Mon 11:28:22 PM 44.6978 -73.5264 12° North 447 514 17,900 -2,529 Descending Boston Center
Mon 11:29:23 PM 44.8103 -73.5372 356° North 427 491 15,400 -2,364 Descending Boston Center
Mon 11:30:01 PM 44.8833 -73.5333 North 400 460 14,000 -1,653 Descending Montreal Center
Mon 11:31:01 PM 44.9833 -73.5000 13° North 360 414 12,700 -1,700 Descending Montreal Center
Mon 11:32:01 PM 45.0833 -73.5000 360° North 350 403 10,600 -1,650 Descending Montreal Center
Mon 11:33:01 PM 45.1667 -73.5000 360° North 310 357 9,400 -1,500 Descending Montreal Center
Mon 11:34:01 PM 45.2500 -73.5000 360° North 300 345 7,600 -1,750 Descending Montreal Center
Mon 11:35:01 PM 45.3333 -73.4833 North 280 322 5,900 -1,500 Descending Montreal Center
Mon 11:36:01 PM 45.4000 -73.4833 360° North 270 311 4,600 -900 Descending Montreal Center
Mon 11:37:01 PM 45.4833 -73.4667 North 250 288 4,100 -350 Descending Montreal Center
Mon 11:38:01 PM 45.5500 -73.4500 10° North 240 276 3,900 -100 Descending Montreal Center
Mon 11:39:01 PM 45.5833 -73.5000 314° West 200 230 3,900 -300 Level Montreal Center
Mon 11:40:01 PM 45.6000 -73.5667 290° West 160 184 3,300 -800 Descending Montreal Center
Mon 11:41:01 PM 45.5500 -73.6167 215° Southwest 170 196 2,300 -900 Descending Montreal Center
Mon 11:42:01 PM 45.5167 -73.6667 226° Southwest 160 184 1,500 -800 Descending Montreal Center
Mon 11:43:01 PM 45.5000 -73.7000 235° Southwest 130 150 700 -467 Descending Montreal Center
Mon 11:45:01 PM 45.4500 -73.7500 215° Southwest 30 35 100 -300 Descending Montreal Center

Login

Don't have an account? Register now (free) for customized features, flight alerts, and more!